createdAt,value
2019-03-08T00:01:01.693Z,3.10
2019-03-08T00:03:34.828Z,3.07
2019-03-08T00:06:09.436Z,3.17
2019-03-08T00:08:42.417Z,2.77
2019-03-08T00:11:16.318Z,3.40
2019-03-08T00:13:52.534Z,3.27
2019-03-08T00:16:25.624Z,3.17
2019-03-08T00:18:58.382Z,2.90
2019-03-08T00:21:31.238Z,3.60
2019-03-08T00:24:05.071Z,3.03
2019-03-08T00:26:38.050Z,3.07
2019-03-08T00:29:10.987Z,2.87
2019-03-08T00:31:43.889Z,2.80
2019-03-08T00:34:16.633Z,3.57
2019-03-08T00:36:49.543Z,3.60
2019-03-08T00:39:22.462Z,3.67
2019-03-08T00:41:55.615Z,3.57
2019-03-08T00:44:28.506Z,4.00
2019-03-08T00:47:01.324Z,3.80
2019-03-08T00:49:34.087Z,5.07
2019-03-08T00:52:07.007Z,3.87
2019-03-08T00:54:39.790Z,3.73
2019-03-08T00:57:12.916Z,3.17
2019-03-08T00:59:45.812Z,3.50
2019-03-08T01:02:18.940Z,3.10
2019-03-08T01:04:52.131Z,3.57
2019-03-08T01:07:25.079Z,2.97
2019-03-08T01:09:58.191Z,2.70
2019-03-08T01:12:30.988Z,3.70
2019-03-08T01:15:04.096Z,3.37
2019-03-08T01:17:36.985Z,3.63
2019-03-08T01:20:11.580Z,3.43
2019-03-08T01:22:44.578Z,3.60
2019-03-08T01:25:17.867Z,3.20
2019-03-08T01:28:09.110Z,3.53
2019-03-08T01:30:43.496Z,3.93
2019-03-08T01:33:16.711Z,3.20
2019-03-08T01:35:49.524Z,3.53
2019-03-08T01:38:22.317Z,3.17
2019-03-08T01:40:55.264Z,3.33
2019-03-08T01:43:28.028Z,3.27
2019-03-08T01:46:00.833Z,3.53
2019-03-08T01:48:34.666Z,3.20
2019-03-08T01:51:07.650Z,2.90
2019-03-08T01:53:40.421Z,2.97
2019-03-08T01:56:13.520Z,3.20
2019-03-08T01:58:46.367Z,2.97
2019-03-08T02:01:19.238Z,3.00
2019-03-08T02:03:52.172Z,2.77
2019-03-08T02:06:25.168Z,2.77
2019-03-08T02:08:59.063Z,4.60
2019-03-08T02:11:32.117Z,3.90
2019-03-08T02:14:04.843Z,2.90
2019-03-08T02:16:38.861Z,3.13
2019-03-08T02:19:11.563Z,2.70
2019-03-08T02:21:44.560Z,2.80
2019-03-08T02:24:17.515Z,2.53
2019-03-08T02:26:50.525Z,3.03
2019-03-08T02:29:23.548Z,3.20
2019-03-08T02:31:56.533Z,3.03
2019-03-08T02:34:29.364Z,2.40
2019-03-08T02:37:02.120Z,2.87
2019-03-08T02:39:34.837Z,2.77
2019-03-08T02:42:07.586Z,2.30
2019-03-08T02:44:41.267Z,2.43
2019-03-08T02:47:14.123Z,3.50
2019-03-08T02:49:46.867Z,2.97
2019-03-08T02:52:19.598Z,2.27
2019-03-08T02:54:52.309Z,2.20
2019-03-08T02:57:26.779Z,2.30
2019-03-08T02:59:59.620Z,3.03
2019-03-08T03:02:32.416Z,2.63
2019-03-08T03:05:06.024Z,2.80
2019-03-08T03:07:41.419Z,2.20
2019-03-08T03:10:14.408Z,2.40
2019-03-08T03:12:47.183Z,2.67
2019-03-08T03:15:19.931Z,2.40
2019-03-08T03:17:52.805Z,2.60
2019-03-08T03:20:25.736Z,2.40
2019-03-08T03:22:58.772Z,2.50
2019-03-08T03:25:31.729Z,2.73
2019-03-08T03:28:04.685Z,2.40
2019-03-08T03:30:37.461Z,2.17
2019-03-08T03:33:10.358Z,2.40
2019-03-08T03:35:43.569Z,2.10
2019-03-08T03:38:16.402Z,2.20
2019-03-08T03:40:49.188Z,1.90
2019-03-08T03:43:22.087Z,2.87
2019-03-08T03:45:55.077Z,2.47
2019-03-08T03:48:27.916Z,2.20
2019-03-08T03:51:00.672Z,2.27
2019-03-08T03:53:33.509Z,2.30
2019-03-08T03:56:06.399Z,2.27
2019-03-08T03:58:39.175Z,2.73
2019-03-08T04:01:42.772Z,2.40
2019-03-08T04:04:15.526Z,1.90
2019-03-08T04:06:48.455Z,2.10
2019-03-08T04:09:21.426Z,2.80
2019-03-08T04:11:54.241Z,1.97
2019-03-08T04:14:27.414Z,2.37
2019-03-08T04:17:00.293Z,2.40
2019-03-08T04:19:33.205Z,2.13
2019-03-08T04:22:06.094Z,2.20
2019-03-08T04:24:38.980Z,2.17
2019-03-08T04:27:11.883Z,2.53
2019-03-08T04:29:44.694Z,2.17
2019-03-08T04:32:17.440Z,2.03
2019-03-08T04:34:50.380Z,2.47
2019-03-08T04:37:23.462Z,2.40
2019-03-08T04:39:57.383Z,2.70
2019-03-08T04:42:30.230Z,2.47
2019-03-08T04:45:03.157Z,2.70
2019-03-08T04:47:36.399Z,2.00
2019-03-08T04:50:10.184Z,2.20
2019-03-08T04:52:43.335Z,2.50
2019-03-08T04:55:16.942Z,2.57
2019-03-08T04:57:52.470Z,2.30
2019-03-08T05:00:25.618Z,2.50
2019-03-08T05:02:58.572Z,2.47
2019-03-08T05:05:31.417Z,2.90
2019-03-08T05:08:04.301Z,2.73
2019-03-08T05:10:37.203Z,3.10
2019-03-08T05:13:11.092Z,2.47
2019-03-08T05:15:43.906Z,3.17
2019-03-08T05:18:18.533Z,3.30
2019-03-08T05:20:51.296Z,3.33
2019-03-08T05:23:24.210Z,3.13
2019-03-08T05:25:58.756Z,3.40
2019-03-08T05:28:31.554Z,3.20
2019-03-08T05:31:04.591Z,3.30
2019-03-08T05:33:37.467Z,3.70
2019-03-08T05:36:10.228Z,4.10
2019-03-08T05:38:43.053Z,3.00
2019-03-08T05:41:15.848Z,3.77
2019-03-08T05:43:48.861Z,3.00
2019-03-08T05:46:21.757Z,3.13
2019-03-08T05:48:54.819Z,3.50
2019-03-08T05:51:27.665Z,3.20
2019-03-08T05:54:00.519Z,3.10
2019-03-08T05:56:37.003Z,3.67
2019-03-08T05:59:09.815Z,3.63
2019-03-08T06:01:42.751Z,3.67
2019-03-08T06:04:15.821Z,3.70
2019-03-08T06:06:48.763Z,3.80
2019-03-08T06:09:21.567Z,3.50
2019-03-08T06:11:54.951Z,4.37
2019-03-08T06:14:27.861Z,2.93
2019-03-08T06:17:00.874Z,3.03
2019-03-08T06:19:33.799Z,2.90
2019-03-08T06:22:06.663Z,2.80
2019-03-08T06:24:39.571Z,3.07
2019-03-08T06:27:12.777Z,2.87
2019-03-08T06:29:47.458Z,2.73
2019-03-08T06:32:20.264Z,2.43
2019-03-08T06:34:53.279Z,2.40
2019-03-08T06:37:26.112Z,2.60
2019-03-08T06:39:59.499Z,2.87
2019-03-08T06:42:34.610Z,2.33
2019-03-08T06:45:08.767Z,2.63
2019-03-08T06:47:42.051Z,2.50
2019-03-08T06:50:15.474Z,1.80
2019-03-08T06:52:48.499Z,2.40
2019-03-08T06:55:21.388Z,2.17
2019-03-08T06:58:02.288Z,1.90
2019-03-08T07:01:03.599Z,2.80
2019-03-08T07:03:36.587Z,2.57
2019-03-08T07:06:09.815Z,2.20
2019-03-08T07:08:44.119Z,2.47
2019-03-08T07:11:16.963Z,1.77
2019-03-08T07:13:50.031Z,2.57
2019-03-08T07:16:22.921Z,1.70
2019-03-08T07:18:55.846Z,2.00
2019-03-08T07:21:50.557Z,1.90
2019-03-08T07:24:48.132Z,2.23
2019-03-08T07:27:48.375Z,1.70
2019-03-08T07:30:38.830Z,1.93
2019-03-08T07:33:41.967Z,3.03
2019-03-08T07:36:29.614Z,2.47
2019-03-08T07:39:31.150Z,2.00
2019-03-08T07:42:28.650Z,1.70
2019-03-08T07:45:23.182Z,2.03
2019-03-08T07:48:20.687Z,2.07
2019-03-08T07:51:10.919Z,1.70
2019-03-08T07:54:01.400Z,2.97
2019-03-08T07:56:46.847Z,1.57
2019-03-08T07:59:31.026Z,1.80
2019-03-08T08:02:17.858Z,1.97
2019-03-08T08:05:18.543Z,1.83
2019-03-08T08:08:01.286Z,2.33
2019-03-08T08:10:53.081Z,1.67
2019-03-08T08:13:39.192Z,2.07
2019-03-08T08:16:33.788Z,1.80
2019-03-08T08:19:23.705Z,1.50
2019-03-08T08:22:12.988Z,1.70
2019-03-08T08:24:55.465Z,1.40
2019-03-08T08:27:50.247Z,2.27
2019-03-08T08:30:42.779Z,1.87
2019-03-08T08:33:37.569Z,1.53
2019-03-08T08:36:31.972Z,1.43
2019-03-08T08:39:17.925Z,1.40
2019-03-08T08:42:06.354Z,1.67
2019-03-08T08:44:56.963Z,1.63
2019-03-08T08:47:47.534Z,1.63
2019-03-08T08:50:37.923Z,1.40
2019-03-08T08:53:41.995Z,1.23
2019-03-08T08:56:32.290Z,1.70
2019-03-08T08:59:14.684Z,3.90
2019-03-08T09:02:10.953Z,1.57
2019-03-08T09:05:08.698Z,2.80
2019-03-08T09:07:49.657Z,1.60
2019-03-08T09:10:53.394Z,1.30
2019-03-08T09:13:33.092Z,1.60
2019-03-08T09:16:28.260Z,1.17
2019-03-08T09:19:20.987Z,2.00
2019-03-08T09:22:11.432Z,1.20
2019-03-08T09:25:08.608Z,1.63
2019-03-08T09:28:05.675Z,1.83
2019-03-08T09:31:00.297Z,1.43
2019-03-08T09:33:58.050Z,1.40
2019-03-08T09:36:52.979Z,1.10
2019-03-08T09:39:35.074Z,1.07
2019-03-08T09:42:43.777Z,0.80
2019-03-08T09:45:47.494Z,1.70
2019-03-08T09:48:39.351Z,2.53
2019-03-08T09:51:42.513Z,2.97
2019-03-08T09:54:20.409Z,1.33
2019-03-08T09:57:09.314Z,2.57
2019-03-08T10:00:04.222Z,1.67
2019-03-08T10:02:56.537Z,1.30
2019-03-08T10:05:42.202Z,3.13
2019-03-08T10:08:40.025Z,2.07
2019-03-08T10:11:18.390Z,1.27
2019-03-08T10:13:59.360Z,2.17
2019-03-08T10:16:40.301Z,1.43
2019-03-08T10:19:30.498Z,1.30
2019-03-08T10:22:12.514Z,2.50
2019-03-08T10:25:01.800Z,1.57
2019-03-08T10:28:03.639Z,2.37
2019-03-08T10:30:55.350Z,2.90
2019-03-08T10:33:53.194Z,2.33
2019-03-08T10:36:53.277Z,2.10
2019-03-08T10:39:35.626Z,1.40
2019-03-08T10:42:20.205Z,1.37
2019-03-08T10:45:21.640Z,1.40
2019-03-08T10:48:13.755Z,1.60
2019-03-08T10:51:17.952Z,8.63
2019-03-08T10:54:08.650Z,1.73
2019-03-08T10:57:06.339Z,1.97
2019-03-08T11:00:01.160Z,2.70
2019-03-08T11:02:53.587Z,1.87
2019-03-08T11:05:54.475Z,1.83
2019-03-08T11:08:42.737Z,1.60
2019-03-08T11:11:33.273Z,1.50
2019-03-08T11:14:31.176Z,2.07
2019-03-08T11:17:10.536Z,1.90
2019-03-08T11:20:00.887Z,1.60
2019-03-08T11:23:02.118Z,4.13
2019-03-08T11:26:03.337Z,1.50
2019-03-08T11:28:55.197Z,1.90
2019-03-08T11:32:02.079Z,2.50
2019-03-08T11:34:59.687Z,2.03
2019-03-08T11:37:56.048Z,1.30
2019-03-08T11:40:48.326Z,1.90
2019-03-08T11:43:58.331Z,1.50
2019-03-08T11:46:41.236Z,2.17
2019-03-08T11:49:37.139Z,1.47
2019-03-08T11:52:19.655Z,2.07
2019-03-08T11:55:13.840Z,1.27
2019-03-08T11:58:04.924Z,1.47
2019-03-08T12:00:59.319Z,1.80
2019-03-08T12:03:53.284Z,2.03
2019-03-08T12:07:00.105Z,2.57
2019-03-08T12:09:42.457Z,2.60
2019-03-08T12:12:32.765Z,2.00
2019-03-08T12:15:18.114Z,2.00
2019-03-08T12:18:22.130Z,1.60
2019-03-08T12:21:21.461Z,1.73
2019-03-08T12:24:28.589Z,2.57
2019-03-08T12:27:20.287Z,2.07
2019-03-08T12:30:14.822Z,1.50
2019-03-08T12:33:04.091Z,2.53
2019-03-08T12:35:49.689Z,1.83
2019-03-08T12:38:40.287Z,2.00
2019-03-08T12:41:34.976Z,1.90
2019-03-08T12:44:29.274Z,1.93
2019-03-08T12:47:24.802Z,2.27
2019-03-08T12:50:16.390Z,2.07
2019-03-08T12:53:23.101Z,2.93
2019-03-08T12:56:09.944Z,2.20
2019-03-08T12:59:00.336Z,2.77
2019-03-08T13:01:45.693Z,2.63
2019-03-08T13:04:27.998Z,2.30
2019-03-08T13:07:18.182Z,2.57
2019-03-08T13:09:51.081Z,2.50
2019-03-08T13:12:23.887Z,2.00
2019-03-08T13:14:56.806Z,2.20
2019-03-08T13:17:29.538Z,1.90
2019-03-08T13:20:02.525Z,2.37
2019-03-08T13:22:35.753Z,2.40
2019-03-08T13:25:08.892Z,2.50
2019-03-08T13:27:41.955Z,2.57
2019-03-08T13:30:18.843Z,3.30
2019-03-08T13:32:52.320Z,3.07
2019-03-08T13:35:25.226Z,3.17
2019-03-08T13:37:58.396Z,3.23
2019-03-08T13:40:31.264Z,3.50
2019-03-08T13:43:04.163Z,2.83
2019-03-08T13:45:36.911Z,3.33
2019-03-08T13:48:09.775Z,3.50
2019-03-08T13:50:42.892Z,3.87
2019-03-08T13:53:16.011Z,3.43
2019-03-08T13:55:48.764Z,3.00
2019-03-08T13:58:21.680Z,2.50
2019-03-08T14:00:54.546Z,2.50
2019-03-08T14:03:27.330Z,3.00
2019-03-08T14:06:00.089Z,3.83
2019-03-08T14:08:33.080Z,2.60
2019-03-08T14:11:06.266Z,2.53
2019-03-08T14:13:39.109Z,3.00
2019-03-08T14:16:14.195Z,2.90
2019-03-08T14:18:52.649Z,3.30
2019-03-08T14:21:26.049Z,2.90
2019-03-08T14:23:59.038Z,2.40
2019-03-08T14:26:31.932Z,2.30
2019-03-08T14:29:07.746Z,2.17
2019-03-08T14:31:49.295Z,2.30
2019-03-08T14:34:23.132Z,2.43
2019-03-08T14:36:56.197Z,2.93
2019-03-08T14:39:30.646Z,3.17
2019-03-08T14:42:28.211Z,2.43
2019-03-08T14:45:14.481Z,2.47
2019-03-08T14:47:49.693Z,2.73
2019-03-08T14:50:22.631Z,2.60
2019-03-08T14:52:56.793Z,2.20
2019-03-08T14:55:29.815Z,2.67
2019-03-08T14:58:02.618Z,2.50
2019-03-08T15:00:35.547Z,2.00
2019-03-08T15:03:08.376Z,1.97
2019-03-08T15:05:41.095Z,1.80
2019-03-08T15:08:17.815Z,2.93
2019-03-08T15:10:51.264Z,3.00
2019-03-08T15:13:23.994Z,3.77
2019-03-08T15:15:58.027Z,3.20
2019-03-08T15:18:31.698Z,2.50
2019-03-08T15:21:04.447Z,2.50
2019-03-08T15:23:37.365Z,3.10
2019-03-08T15:26:12.705Z,4.27
2019-03-08T15:28:45.415Z,3.80
2019-03-08T15:31:18.173Z,4.27
2019-03-08T15:33:51.037Z,3.17
2019-03-08T15:36:23.967Z,4.70
2019-03-08T15:38:58.847Z,3.93
2019-03-08T15:41:31.476Z,2.97
2019-03-08T15:44:04.304Z,3.23
2019-03-08T15:46:37.170Z,2.80
2019-03-08T15:49:10.090Z,2.33
2019-03-08T15:51:42.839Z,2.70
2019-03-08T15:54:15.771Z,2.67
2019-03-08T15:56:51.581Z,2.77
2019-03-08T15:59:24.341Z,2.60
2019-03-08T16:01:57.076Z,2.90
2019-03-08T16:04:30.102Z,2.73
2019-03-08T16:07:03.116Z,2.90
2019-03-08T16:09:38.801Z,2.73
2019-03-08T16:12:11.645Z,2.83
2019-03-08T16:14:44.527Z,2.50
2019-03-08T16:17:18.522Z,2.80
2019-03-08T16:19:51.546Z,2.00
2019-03-08T16:22:24.636Z,2.23
2019-03-08T16:24:58.902Z,2.70
2019-03-08T16:27:32.274Z,3.33
2019-03-08T16:30:09.693Z,2.57
2019-03-08T16:32:50.909Z,2.90
2019-03-08T16:35:23.669Z,3.40
2019-03-08T16:38:14.220Z,2.93
2019-03-08T16:41:03.997Z,3.00
2019-03-08T16:43:46.700Z,4.30
2019-03-08T16:46:37.831Z,3.60
2019-03-08T16:49:18.746Z,3.97
2019-03-08T16:52:07.447Z,3.20
2019-03-08T16:54:50.009Z,3.27
2019-03-08T16:57:32.708Z,3.40
2019-03-08T17:00:29.633Z,3.77
2019-03-08T17:03:23.915Z,3.70
2019-03-08T17:06:26.648Z,3.67
2019-03-08T17:09:26.170Z,5.40
2019-03-08T17:12:16.449Z,4.53
2019-03-08T17:14:59.095Z,3.90
2019-03-08T17:17:51.120Z,4.60
2019-03-08T17:20:45.318Z,6.27
2019-03-08T17:23:52.864Z,5.33
2019-03-08T17:26:38.240Z,4.80
2019-03-08T17:29:25.585Z,5.03
2019-03-08T17:32:19.938Z,6.27
2019-03-08T17:35:18.773Z,12.13
2019-03-08T17:38:13.608Z,18.87
2019-03-08T17:41:00.204Z,7.10
2019-03-08T17:43:51.093Z,4.23
2019-03-08T17:46:40.971Z,5.00
2019-03-08T17:49:31.580Z,4.73
2019-03-08T17:52:21.967Z,5.60
2019-03-08T17:55:19.403Z,6.07
2019-03-08T17:58:23.102Z,5.17
2019-03-08T18:01:13.453Z,5.03
2019-03-08T18:04:11.334Z,3.90
2019-03-08T18:07:01.749Z,7.43
2019-03-08T18:09:54.173Z,6.67
2019-03-08T18:12:52.029Z,8.47
2019-03-08T18:15:58.977Z,5.53
2019-03-08T18:18:54.719Z,5.10
2019-03-08T18:21:41.913Z,4.90
2019-03-08T18:24:39.883Z,5.87
2019-03-08T18:27:31.572Z,6.87
2019-03-08T18:30:18.356Z,8.03
2019-03-08T18:33:00.207Z,7.60
2019-03-08T18:35:57.939Z,9.03
2019-03-08T18:38:55.667Z,9.17
2019-03-08T18:41:50.556Z,10.17
2019-03-08T18:44:48.330Z,8.87
2019-03-08T18:47:52.121Z,8.40
2019-03-08T18:50:46.711Z,8.43
2019-03-08T18:53:44.458Z,8.07
2019-03-08T18:56:57.837Z,9.20
2019-03-08T18:59:40.656Z,7.23
2019-03-08T19:02:33.880Z,8.37
2019-03-08T19:05:26.477Z,8.33
2019-03-08T19:08:39.294Z,7.97
2019-03-08T19:11:20.717Z,6.77
2019-03-08T19:14:14.107Z,8.43
2019-03-08T19:17:07.290Z,7.63
2019-03-08T19:20:02.585Z,7.00
2019-03-08T19:23:01.174Z,10.50
2019-03-08T19:25:59.162Z,10.83
2019-03-08T19:28:56.713Z,9.10
2019-03-08T19:31:52.255Z,8.70
2019-03-08T19:34:41.667Z,8.80
2019-03-08T19:37:33.947Z,8.77
2019-03-08T19:40:44.101Z,9.30
2019-03-08T19:43:44.103Z,8.70
2019-03-08T19:46:52.564Z,9.00
2019-03-08T19:49:47.560Z,9.50
2019-03-08T19:52:42.087Z,11.03
2019-03-08T19:55:18.849Z,9.50
2019-03-08T19:58:10.700Z,8.97
2019-03-08T20:00:53.781Z,8.50
2019-03-08T20:03:56.645Z,8.93
2019-03-08T20:06:46.839Z,8.23
2019-03-08T20:09:51.588Z,9.17
2019-03-08T20:12:55.972Z,8.87
2019-03-08T20:15:49.611Z,9.27
2019-03-08T20:18:40.014Z,9.27
2019-03-08T20:21:30.778Z,7.90
2019-03-08T20:24:28.891Z,7.73
2019-03-08T20:27:28.639Z,7.60
2019-03-08T20:30:29.457Z,7.30
2019-03-08T20:33:41.058Z,7.17
2019-03-08T20:36:55.794Z,6.73
2019-03-08T20:40:05.219Z,8.57
2019-03-08T20:42:47.184Z,7.47
2019-03-08T20:45:43.419Z,8.87
2019-03-08T20:48:16.553Z,8.87
2019-03-08T20:50:49.983Z,7.40
2019-03-08T20:53:23.189Z,8.20
2019-03-08T20:55:58.583Z,9.33
2019-03-08T20:58:31.950Z,8.17
2019-03-08T21:01:06.606Z,8.73
2019-03-08T21:03:39.643Z,8.80
2019-03-08T21:06:12.840Z,10.57
2019-03-08T21:08:45.946Z,10.33
2019-03-08T21:11:18.997Z,9.83
2019-03-08T21:13:51.873Z,10.60
2019-03-08T21:16:27.896Z,10.20
2019-03-08T21:19:01.922Z,10.87
2019-03-08T21:21:34.795Z,10.70
2019-03-08T21:24:07.907Z,9.93
2019-03-08T21:26:41.855Z,11.67
2019-03-08T21:29:15.044Z,10.80
2019-03-08T21:31:48.060Z,10.30
2019-03-08T21:34:21.130Z,11.10
2019-03-08T21:36:53.986Z,9.43
2019-03-08T21:39:27.420Z,9.97
2019-03-08T21:42:00.506Z,9.73
2019-03-08T21:44:33.805Z,9.60
2019-03-08T21:47:06.741Z,9.97
2019-03-08T21:49:39.776Z,9.87
2019-03-08T21:52:12.829Z,10.67
2019-03-08T21:54:45.889Z,8.73
2019-03-08T21:57:19.941Z,10.57
2019-03-08T21:59:53.045Z,9.97
2019-03-08T22:02:26.021Z,9.30
2019-03-08T22:05:02.486Z,9.10
2019-03-08T22:07:38.656Z,9.70
2019-03-08T22:10:21.261Z,9.53
2019-03-08T22:12:54.122Z,9.70
2019-03-08T22:15:27.410Z,9.60
2019-03-08T22:18:00.291Z,8.63
2019-03-08T22:20:33.295Z,7.80
2019-03-08T22:23:09.137Z,8.13
2019-03-08T22:25:42.188Z,8.30
2019-03-08T22:28:15.178Z,6.13
2019-03-08T22:30:47.989Z,6.47
2019-03-08T22:33:20.709Z,6.53
2019-03-08T22:35:53.553Z,7.13
2019-03-08T22:38:27.090Z,6.30
2019-03-08T22:40:59.992Z,6.77
2019-03-08T22:43:32.886Z,5.27
2019-03-08T22:46:05.878Z,5.73
2019-03-08T22:48:38.735Z,5.93
2019-03-08T22:51:11.711Z,5.93
2019-03-08T22:53:44.523Z,6.30
2019-03-08T22:56:17.414Z,6.70
2019-03-08T22:58:50.458Z,6.30
2019-03-08T23:01:24.081Z,5.57
2019-03-08T23:03:57.499Z,5.80
2019-03-08T23:06:30.462Z,6.07
2019-03-08T23:09:04.312Z,5.73
2019-03-08T23:11:38.615Z,5.90
2019-03-08T23:14:11.601Z,5.93
2019-03-08T23:16:45.313Z,5.03
2019-03-08T23:19:20.817Z,6.07
2019-03-08T23:21:54.151Z,5.00
2019-03-08T23:24:27.424Z,5.33
2019-03-08T23:27:10.422Z,5.87
2019-03-08T23:29:53.000Z,5.47
2019-03-08T23:32:29.158Z,6.27
2019-03-08T23:35:02.229Z,6.37
2019-03-08T23:37:35.237Z,7.03
2019-03-08T23:40:08.916Z,6.57
2019-03-08T23:42:41.940Z,7.27
2019-03-08T23:45:15.607Z,7.53
2019-03-08T23:47:49.522Z,7.63
2019-03-08T23:50:22.531Z,9.10
2019-03-08T23:52:55.650Z,9.53
2019-03-08T23:55:28.832Z,8.67
2019-03-08T23:58:02.179Z,8.80
